Zoetermeer, Netherlands
Current Conditions -  °F | °C
As of 2:25 AM on Tuesday 25 Nov 2014 (Local Time) from EHRD Reporting Station
Haze Haze  
Wind Chill: 34°   Ceiling: Unl
Heat Index: 34°   Visibility: 2.1mi
Dew Point: 34°   Wind: 2mph
Humidity: 100%   Direction: 170°S
Pressure: 30.33"   Gusts: NA
Location:  52.06°N, 4.49°E
Report Text: EHRD 250125Z AUTO 17002KT 3500 BR FEW037 01/01 Q1027 TEMPO 1200MIFG
Loading
Personal Weather Stations






























Interactive Weather Map New forecast layout! Learn more

10-Day Weather Forecast

Advertisements
Track Severe Weather on mobile